No particular awareness of the weather is required.    There are no Weather-warnings


Meteo18 Weather Cam more information Meteo18 Weather Cam


Thunder radar more information blitzortung!


Rain radar more information rain snow radar


Visit our other weather sites:

Template documentation
and downloads

And another site



Weather Underground History page Text

Daily Summary for July 15, 2017 Units:  English    Metric   Both
« Previous Day
Next Day »
Daily Weekly Monthly Yearly Custom
  High: Low: Average:
Temperature: 77.5 °F 54 °F 66.9 °F
Dew Point: 54.5 °F 49.6 °F 52.2 °F
Humidity: 85 % 42 % 61 %
Wind Speed: 11 mph 0 mph 2.7 mph
Wind Gust: 14 mph - -
Wind:- - SSW
Pressure: 30.3 in 30.2 in -
Precipitation: 0 in    
Historical Graphs
 
 
Tabular Data for July 15, 2017
Time Temperature Dew Point Pressure Wind Wind Speed Wind Gust Humidity Rainfall Rate (Hourly)
00:02 63.1 °F 54 °F 30.2 in WNW 1 mph 4 mph 72 % 0 in
00:12 63.3 °F 54.1 °F 30.2 in NW 3 mph 9 mph 72 % 0 in
00:17 63.3 °F 54.1 °F 30.2 in WNW 4 mph 9 mph 72 % 0 in
00:22 63.3 °F 54.1 °F 30.2 in NW 4 mph 9 mph 72 % 0 in
00:27 63.3 °F 53.8 °F 30.2 in NW 1 mph 9 mph 71 % 0 in
00:37 63.3 °F 53.8 °F 30.2 in NNW 6 mph 8 mph 71 % 0 in
00:42 63.1 °F 54 °F 30.2 in NNW 2 mph 9 mph 72 % 0 in
00:47 63 °F 53.8 °F 30.2 in North 3 mph 9 mph 72 % 0 in
00:52 62.8 °F 53.6 °F 30.2 in NNW 3 mph 9 mph 72 % 0 in
00:57 62.4 °F 53.6 °F 30.2 in North 7 mph 8 mph 73 % 0 in
01:02 62.2 °F 53.4 °F 30.2 in NNW 6 mph 8 mph 73 % 0 in
01:12 61.7 °F 52.9 °F 30.2 in NNW 4 mph 7 mph 73 % 0 in
01:17 61.3 °F 52.7 °F 30.2 in North 2 mph 7 mph 73 % 0 in
01:22 61.2 °F 52.5 °F 30.2 in NW 3 mph 7 mph 73 % 0 in
01:27 61 °F 52.7 °F 30.2 in NW 2 mph 6 mph 74 % 0 in
01:32 60.8 °F 52.5 °F 30.2 in NNW 1 mph 6 mph 74 % 0 in
01:37 60.6 °F 52.3 °F 30.2 in NNW 2 mph 4 mph 74 % 0 in
01:42 60.6 °F 52 °F 30.2 in North 3 mph 5 mph 73 % 0 in
01:47 60.6 °F 52 °F 30.2 in NNW 3 mph 5 mph 73 % 0 in
01:52 60.4 °F 51.8 °F 30.2 in North 4 mph 6 mph 73 % 0 in
01:57 60.3 °F 51.6 °F 30.2 in North 4 mph 6 mph 73 % 0 in
02:02 60.4 °F 51.8 °F 30.2 in NNW 4 mph 7 mph 73 % 0 in
02:07 60.4 °F 51.4 °F 30.2 in NNW 6 mph 7 mph 72 % 0 in
02:12 60.3 °F 51.3 °F 30.2 in NNW 2 mph 7 mph 72 % 0 in
02:17 60.3 °F 51.3 °F 30.2 in NW 2 mph 9 mph 72 % 0 in
02:22 60.1 °F 51.1 °F 30.2 in NW 2 mph 9 mph 72 % 0 in
02:32 59.7 °F 51.1 °F 30.2 in North 4 mph 7 mph 73 % 0 in
02:42 59.5 °F 50.9 °F 30.2 in NNE 3 mph 6 mph 73 % 0 in
02:47 59.5 °F 50.9 °F 30.2 in NW 2 mph 6 mph 73 % 0 in
02:57 59.2 °F 50.9 °F 30.2 in NW 3 mph 6 mph 74 % 0 in
03:02 58.8 °F 50.5 °F 30.2 in NNW 5 mph 5 mph 74 % 0 in
03:07 58.8 °F 50.9 °F 30.2 in NW 5 mph 5 mph 75 % 0 in
03:12 58.6 °F 50.7 °F 30.2 in North 1 mph 6 mph 75 % 0 in
03:17 58.5 °F 50.5 °F 30.2 in NNE 4 mph 6 mph 75 % 0 in
03:22 58.3 °F 50.4 °F 30.2 in NNW 2 mph 6 mph 75 % 0 in
03:27 58.1 °F 50.5 °F 30.2 in NNW 1 mph 6 mph 76 % 0 in
03:32 57.9 °F 50.4 °F 30.2 in NNW 1 mph 5 mph 76 % 0 in
03:37 57.7 °F 50.2 °F 30.2 in NW 2 mph 5 mph 76 % 0 in
03:42 57.6 °F 50.4 °F 30.2 in WNW 2 mph 5 mph 77 % 0 in
03:47 57.4 °F 50.2 °F 30.2 in North 1 mph 5 mph 77 % 0 in
03:52 57 °F 50.2 °F 30.2 in NNW 1 mph 4 mph 78 % 0 in
03:57 56.8 °F 50 °F 30.2 in NNW 2 mph 4 mph 78 % 0 in
04:02 56.7 °F 50.2 °F 30.2 in Calm   3 mph 79 % 0 in
04:07 56.5 °F 50 °F 30.2 in Calm   3 mph 79 % 0 in
04:12 56.5 °F 50.4 °F 30.2 in Calm   2 mph 80 % 0 in
04:17 56.1 °F 50 °F 30.2 in NW 1 mph 2 mph 80 % 0 in
04:22 55.9 °F 49.8 °F 30.2 in NW 1 mph 2 mph 80 % 0 in
04:27 55.8 °F 50 °F 30.2 in Calm   2 mph 81 % 0 in
04:32 55.6 °F 49.8 °F 30.2 in NNW 1 mph 2 mph 81 % 0 in
04:42 55.2 °F 49.8 °F 30.2 in Calm   2 mph 82 % 0 in
04:47 55.2 °F 49.8 °F 30.2 in Calm   2 mph 82 % 0 in
04:52 55.2 °F 49.8 °F 30.2 in Calm   2 mph 82 % 0 in
04:57 55.2 °F 49.8 °F 30.2 in Calm   1 mph 82 % 0 in
05:02 55 °F 49.6 °F 30.2 in Calm   1 mph 82 % 0 in
05:12 55 °F 49.6 °F 30.2 in Calm   1 mph 82 % 0 in
05:17 55 °F 50 °F 30.2 in Calm   1 mph 83 % 0 in
05:22 54.9 °F 49.8 °F 30.2 in Calm   1 mph 83 % 0 in
05:27 55 °F 50 °F 30.2 in Calm   1 mph 83 % 0 in
05:32 55 °F 49.6 °F 30.2 in Calm   2 mph 82 % 0 in
05:42 54.9 °F 49.8 °F 30.2 in Calm   2 mph 83 % 0 in
05:47 54.7 °F 49.6 °F 30.3 in North 1 mph 1 mph 83 % 0 in
05:52 54.7 °F 50 °F 30.3 in North 2 mph 2 mph 84 % 0 in
05:57 54.7 °F 50 °F 30.3 in Calm   3 mph 84 % 0 in
06:02 54.7 °F 50 °F 30.3 in Calm   3 mph 84 % 0 in
06:12 54.3 °F 49.6 °F 30.3 in Calm   3 mph 84 % 0 in
06:17 54.1 °F 49.8 °F 30.3 in Calm   2 mph 85 % 0 in
06:22 54.1 °F 49.8 °F 30.3 in Calm   2 mph 85 % 0 in
06:27 54.1 °F 49.8 °F 30.3 in Calm   1 mph 85 % 0 in
06:32 54 °F 49.6 °F 30.3 in Calm   1 mph 85 % 0 in
06:42 54.7 °F 50.2 °F 30.3 in NNE 2 mph 2 mph 85 % 0 in
06:47 55 °F 50.4 °F 30.3 in NNW 1 mph 4 mph 84 % 0 in
06:52 55.4 °F 50.7 °F 30.3 in Calm   4 mph 84 % 0 in
07:02 56.1 °F 50.7 °F 30.3 in NNW 1 mph 3 mph 82 % 0 in
07:12 56.8 °F 51.1 °F 30.3 in NNE 1 mph 4 mph 81 % 0 in
07:17 57.2 °F 51.4 °F 30.3 in North 2 mph 3 mph 81 % 0 in
07:22 57.6 °F 51.4 °F 30.3 in North 3 mph 4 mph 80 % 0 in
07:27 57.7 °F 51.6 °F 30.3 in NNW 3 mph 5 mph 80 % 0 in
07:32 58.3 °F 51.8 °F 30.3 in NNW 2 mph 5 mph 79 % 0 in
07:37 58.5 °F 51.6 °F 30.3 in NE 3 mph 5 mph 78 % 0 in
07:42 58.6 °F 51.8 °F 30.3 in North 1 mph 6 mph 78 % 0 in
07:47 58.8 °F 52 °F 30.3 in NNW 4 mph 8 mph 78 % 0 in
07:52 59.2 °F 52.3 °F 30.3 in North 5 mph 8 mph 78 % 0 in
08:02 59.7 °F 51.8 °F 30.3 in NNW 5 mph 9 mph 75 % 0 in
08:12 59.9 °F 52 °F 30.3 in NE 4 mph 12 mph 75 % 0 in
08:17 60.1 °F 52.2 °F 30.3 in North 4 mph 12 mph 75 % 0 in
08:22 60.3 °F 52.3 °F 30.3 in NW 1 mph 12 mph 75 % 0 in
08:27 60.6 °F 52.3 °F 30.3 in NNE 3 mph 12 mph 74 % 0 in
08:32 61 °F 52.7 °F 30.3 in NE 6 mph 9 mph 74 % 0 in
08:37 61.2 °F 52.5 °F 30.3 in NNE 2 mph 9 mph 73 % 0 in
08:42 61.3 °F 52.7 °F 30.3 in NNW 6 mph 12 mph 73 % 0 in
08:52 62.1 °F 52.9 °F 30.3 in NNE 4 mph 12 mph 72 % 0 in
08:57 62.2 °F 52.7 °F 30.3 in North 8 mph 9 mph 71 % 0 in
09:02 62.2 °F 53.1 °F 30.3 in NNE 7 mph 8 mph 72 % 0 in
09:12 63 °F 53.1 °F 30.3 in NNW 3 mph 9 mph 70 % 0 in
09:17 63.3 °F 53.4 °F 30.3 in East 1 mph 7 mph 70 % 0 in
09:22 63.5 °F 52.7 °F 30.3 in East 2 mph 7 mph 68 % 0 in
09:27 63.7 °F 52.9 °F 30.3 in Calm   7 mph 68 % 0 in
09:32 64 °F 53.2 °F 30.3 in Calm   6 mph 68 % 0 in
09:37 64.9 °F 53.2 °F 30.3 in ENE 1 mph 6 mph 66 % 0 in
09:42 64.9 °F 52.5 °F 30.3 in ENE 4 mph 5 mph 64 % 0 in
09:47 64.6 °F 52.2 °F 30.3 in ENE 3 mph 5 mph 64 % 0 in
09:52 64.9 °F 52 °F 30.3 in ENE 1 mph 5 mph 63 % 0 in
10:02 65.5 °F 52.2 °F 30.3 in NE 5 mph 8 mph 62 % 0 in
10:12 65.5 °F 52.5 °F 30.3 in West 1 mph 8 mph 63 % 0 in
10:17 65.8 °F 52.5 °F 30.3 in North 5 mph 10 mph 62 % 0 in
10:22 66 °F 52.7 °F 30.3 in ENE 4 mph 10 mph 62 % 0 in
10:32 66.7 °F 52 °F 30.3 in NNE 3 mph 9 mph 59 % 0 in
10:37 66.6 °F 52.7 °F 30.3 in NNW 1 mph 6 mph 61 % 0 in
10:42 66.7 °F 51.4 °F 30.3 in SE 1 mph 8 mph 58 % 0 in
10:47 67.5 °F 51.6 °F 30.3 in NNW 2 mph 8 mph 57 % 0 in
10:52 67.3 °F 52 °F 30.3 in ENE 4 mph 7 mph 58 % 0 in
10:57 66.9 °F 51.3 °F 30.3 in North 4 mph 6 mph 57 % 0 in
11:02 67.5 °F 51.6 °F 30.3 in East 4 mph 10 mph 57 % 0 in
11:07 67.3 °F 52 °F 30.3 in NNW 4 mph 10 mph 58 % 0 in
11:12 67.3 °F 52 °F 30.3 in Calm   10 mph 58 % 0 in
11:17 67.8 °F 52.5 °F 30.3 in North 1 mph 8 mph 58 % 0 in
11:22 68.4 °F 52.5 °F 30.3 in SE 3 mph 10 mph 57 % 0 in
11:32 68.7 °F 52.3 °F 30.3 in SW 1 mph 10 mph 56 % 0 in
11:37 69.3 °F 52 °F 30.3 in NW 4 mph 6 mph 54 % 0 in
11:42 68.7 °F 51.4 °F 30.3 in West 2 mph 5 mph 54 % 0 in
11:47 68.7 °F 51.4 °F 30.3 in North 4 mph 9 mph 54 % 0 in
11:52 68.7 °F 51.4 °F 30.3 in NE 1 mph 10 mph 54 % 0 in
11:57 68.7 °F 50.9 °F 30.3 in NNE 2 mph 10 mph 53 % 0 in
12:02 68.7 °F 50.4 °F 30.3 in NW 1 mph 10 mph 52 % 0 in
12:12 69.1 °F 51.3 °F 30.3 in North 7 mph 9 mph 53 % 0 in
12:17 69.6 °F 51.3 °F 30.3 in East 2 mph 9 mph 52 % 0 in
12:22 70 °F 51.6 °F 30.3 in NNE 7 mph 9 mph 52 % 0 in
12:32 70 °F 51.6 °F 30.3 in Calm   11 mph 52 % 0 in
12:42 70.2 °F 51.8 °F 30.3 in SSE 2 mph 11 mph 52 % 0 in
12:52 70.3 °F 50.9 °F 30.3 in NE 1 mph 8 mph 50 % 0 in
13:02 70.9 °F 50.2 °F 30.3 in East 1 mph 13 mph 48 % 0 in
13:12 71.4 °F 51.3 °F 30.3 in ENE 7 mph 10 mph 49 % 0 in
13:17 71.4 °F 51.3 °F 30.3 in NNW 4 mph 11 mph 49 % 0 in
13:22 71.8 °F 52.2 °F 30.3 in NNE 5 mph 11 mph 50 % 0 in
13:32 72.3 °F 52.2 °F 30.3 in NE 5 mph 10 mph 49 % 0 in
13:37 72.3 °F 50.4 °F 30.3 in NE 5 mph 12 mph 46 % 0 in
13:42 72.3 °F 50.9 °F 30.3 in ENE 4 mph 12 mph 47 % 0 in
13:47 72.3 °F 51.4 °F 30.3 in North 3 mph 12 mph 48 % 0 in
13:52 72.9 °F 51.4 °F 30.3 in Calm   8 mph 47 % 0 in
13:57 73.2 °F 52.3 °F 30.3 in North 2 mph 8 mph 48 % 0 in
14:02 73.8 °F 51.6 °F 30.3 in NNE 1 mph 8 mph 46 % 0 in
14:07 73.8 °F 52.3 °F 30.3 in NE 8 mph 8 mph 47 % 0 in
14:12 73.8 °F 52.3 °F 30.3 in NNE 2 mph 13 mph 47 % 0 in
14:17 74.5 °F 52.3 °F 30.3 in North 4 mph 13 mph 46 % 0 in
14:22 74.7 °F 52.5 °F 30.3 in NNE 3 mph 13 mph 46 % 0 in
14:27 74.1 °F 50.9 °F 30.3 in NNW 4 mph 14 mph 44 % 0 in
14:32 73.9 °F 51.8 °F 30.3 in Calm   14 mph 46 % 0 in
14:37 74.1 °F 51.4 °F 30.3 in Calm   14 mph 45 % 0 in
14:42 74.3 °F 51.6 °F 30.3 in NNE 1 mph 11 mph 45 % 0 in
14:47 74.5 °F 51.8 °F 30.3 in NE 7 mph 14 mph 45 % 0 in
14:52 74.3 °F 51.6 °F 30.3 in SSW 2 mph 14 mph 45 % 0 in
15:02 74.5 °F 51.1 °F 30.3 in ENE 3 mph 9 mph 44 % 0 in
15:07 74.7 °F 51.3 °F 30.3 in East 2 mph 11 mph 44 % 0 in
15:12 73.8 °F 49.8 °F 30.3 in NE 2 mph 11 mph 43 % 0 in
15:17 74.5 °F 51.8 °F 30.3 in SW 2 mph 11 mph 45 % 0 in
15:22 75.4 °F 51.3 °F 30.3 in ENE 5 mph 11 mph 43 % 0 in
15:27 75.4 °F 52 °F 30.3 in NNW 2 mph 6 mph 44 % 0 in
15:32 75.4 °F 52 °F 30.3 in NNW 1 mph 10 mph 44 % 0 in
15:37 75.4 °F 52 °F 30.3 in North 9 mph 10 mph 44 % 0 in
15:42 75.6 °F 51.4 °F 30.3 in Calm   13 mph 43 % 0 in
15:47 75.9 °F 51.3 °F 30.3 in SW 3 mph 13 mph 42 % 0 in
15:57 76.3 °F 52.2 °F 30.3 in NW 4 mph 5 mph 43 % 0 in
16:02 76.3 °F 51.4 °F 30.3 in ENE 3 mph 9 mph 42 % 0 in
16:07 75.9 °F 52.5 °F 30.3 in North 2 mph 9 mph 44 % 0 in
16:12 76.3 °F 52.7 °F 30.3 in ENE 9 mph 9 mph 44 % 0 in
16:17 75.7 °F 52.3 °F 30.3 in East 7 mph 10 mph 44 % 0 in
16:22 76.1 °F 52.5 °F 30.3 in NE 7 mph 11 mph 44 % 0 in
16:27 76.3 °F 52.2 °F 30.3 in NNE 8 mph 11 mph 43 % 0 in
16:32 75.9 °F 51.8 °F 30.3 in NNW 5 mph 14 mph 43 % 0 in
16:37 76.3 °F 52.2 °F 30.3 in WNW 1 mph 14 mph 43 % 0 in
16:42 76.8 °F 53.2 °F 30.3 in ENE 3 mph 14 mph 44 % 0 in
16:47 76.8 °F 53.2 °F 30.3 in ENE 4 mph 6 mph 44 % 0 in
16:52 76.8 °F 53.8 °F 30.3 in NE 9 mph 9 mph 45 % 0 in
16:57 76.6 °F 53.8 °F 30.3 in ENE 8 mph 9 mph 45 % 0 in
17:02 76.6 °F 53.1 °F 30.3 in ESE 4 mph 10 mph 44 % 0 in
17:07 77 °F 53.4 °F 30.3 in NNE 6 mph 12 mph 44 % 0 in
17:12 76.8 °F 53.2 °F 30.3 in NE 9 mph 12 mph 44 % 0 in
17:17 76.3 °F 52.7 °F 30.3 in ENE 6 mph 12 mph 44 % 0 in
17:22 76.3 °F 52.2 °F 30.3 in ESE 2 mph 12 mph 43 % 0 in
17:27 75.9 °F 53.1 °F 30.2 in ENE 3 mph 10 mph 45 % 0 in
17:32 76.6 °F 52.5 °F 30.2 in NNE 6 mph 9 mph 43 % 0 in
17:37 76.8 °F 53.2 °F 30.2 in East 4 mph 9 mph 44 % 0 in
17:42 77.4 °F 54.3 °F 30.2 in NNW 4 mph 9 mph 45 % 0 in
17:47 77.4 °F 53.1 °F 30.2 in Calm   10 mph 43 % 0 in
17:52 77.5 °F 53.2 °F 30.2 in NE 5 mph 10 mph 43 % 0 in
17:57 77 °F 54 °F 30.2 in NNE 11 mph 12 mph 45 % 0 in
18:02 77.2 °F 52.9 °F 30.2 in ENE 5 mph 13 mph 43 % 0 in
18:07 77.4 °F 53.8 °F 30.2 in NE 3 mph 13 mph 44 % 0 in
18:12 77.4 °F 53.1 °F 30.2 in NNE 8 mph 13 mph 43 % 0 in
18:17 77.4 °F 53.8 °F 30.2 in NNW 3 mph 13 mph 44 % 0 in
18:22 77.5 °F 52.7 °F 30.2 in ENE 5 mph 10 mph 42 % 0 in
18:27 77.5 °F 53.2 °F 30.2 in NNW 6 mph 10 mph 43 % 0 in
18:32 77.2 °F 52.9 °F 30.2 in NNE 1 mph 10 mph 43 % 0 in
18:42 76.8 °F 53.2 °F 30.2 in NNW 2 mph 10 mph 44 % 0 in
18:52 76.6 °F 53.1 °F 30.2 in NW 5 mph 11 mph 44 % 0 in
18:57 76.5 °F 52.9 °F 30.2 in North 5 mph 11 mph 44 % 0 in
19:02 76.3 °F 53.4 °F 30.2 in NNW 4 mph 11 mph 45 % 0 in
19:07 76.6 °F 53.1 °F 30.2 in ENE 3 mph 11 mph 44 % 0 in
19:12 76.6 °F 53.8 °F 30.2 in NE 4 mph 11 mph 45 % 0 in
19:17 76.6 °F 53.8 °F 30.2 in NNW 4 mph 8 mph 45 % 0 in
19:22 76.8 °F 53.8 °F 30.2 in NNE 8 mph 9 mph 45 % 0 in
19:27 76.5 °F 52.9 °F 30.3 in NNW 3 mph 12 mph 44 % 0 in
19:32 76.5 °F 53.6 °F 30.2 in NW 1 mph 12 mph 45 % 0 in
19:42 76.3 °F 53.4 °F 30.3 in NW 2 mph 9 mph 45 % 0 in
19:47 76.3 °F 53.4 °F 30.2 in NNW 8 mph 9 mph 45 % 0 in
19:52 75.9 °F 53.1 °F 30.2 in NE 5 mph 9 mph 45 % 0 in
20:02 75.6 °F 53.2 °F 30.3 in NNE 3 mph 8 mph 46 % 0 in
20:07 75.7 °F 53.4 °F 30.3 in NNW 3 mph 9 mph 46 % 0 in
20:12 75.7 °F 53.4 °F 30.3 in NNW 3 mph 10 mph 46 % 0 in
20:17 75.7 °F 53.4 °F 30.3 in NNE 3 mph 10 mph 46 % 0 in
20:22 75.7 °F 54.1 °F 30.2 in NNE 2 mph 10 mph 47 % 0 in
20:27 75.4 °F 53.8 °F 30.3 in NNE 2 mph 9 mph 47 % 0 in
20:32 75 °F 53.4 °F 30.3 in WNW 2 mph 9 mph 47 % 0 in
20:37 75 °F 54 °F 30.3 in ENE 3 mph 9 mph 48 % 0 in
20:42 74.8 °F 53.8 °F 30.3 in NNE 5 mph 7 mph 48 % 0 in
20:47 74.8 °F 54.3 °F 30.3 in North 5 mph 8 mph 49 % 0 in
20:52 74.7 °F 54.3 °F 30.3 in NNW 2 mph 8 mph 49 % 0 in
20:57 74.1 °F 53.8 °F 30.3 in NW 2 mph 8 mph 49 % 0 in
21:02 73.8 °F 54 °F 30.3 in North 3 mph 7 mph 50 % 0 in
21:07 73.2 °F 53.4 °F 30.3 in NNE 4 mph 7 mph 50 % 0 in
21:12 72.9 °F 53.6 °F 30.3 in NE 2 mph 5 mph 51 % 0 in
21:17 72.5 °F 54 °F 30.3 in NNE 2 mph 5 mph 52 % 0 in
21:22 72.1 °F 53.6 °F 30.3 in North 3 mph 5 mph 52 % 0 in
21:27 72 °F 54 °F 30.3 in NNW 2 mph 5 mph 53 % 0 in
21:32 71.4 °F 53.4 °F 30.3 in NNW 2 mph 3 mph 53 % 0 in
21:37 71.2 °F 53.8 °F 30.3 in WNW 1 mph 4 mph 54 % 0 in
21:42 70.9 °F 53.4 °F 30.3 in Calm   4 mph 54 % 0 in
21:47 70.5 °F 53.6 °F 30.3 in NNW 1 mph 4 mph 55 % 0 in
21:57 70 °F 53.1 °F 30.3 in NNW 1 mph 3 mph 55 % 0 in
22:02 69.6 °F 53.2 °F 30.3 in Calm   2 mph 56 % 0 in
22:07 69.3 °F 53.4 °F 30.3 in Calm   2 mph 57 % 0 in
22:12 69.1 °F 53.2 °F 30.3 in Calm   2 mph 57 % 0 in
22:17 68.5 °F 53.2 °F 30.3 in North 1 mph 2 mph 58 % 0 in
22:22 67.8 °F 52.9 °F 30.3 in North 1 mph 2 mph 59 % 0 in
22:27 67.8 °F 53.4 °F 30.3 in NNW 1 mph 2 mph 60 % 0 in
22:32 67.8 °F 53.4 °F 30.3 in NNW 1 mph 2 mph 60 % 0 in
22:37 67.6 °F 53.8 °F 30.3 in Calm   2 mph 61 % 0 in
22:42 67.3 °F 53.8 °F 30.3 in WNW 1 mph 1 mph 62 % 0 in
22:47 66.6 °F 53.6 °F 30.3 in West 1 mph 2 mph 63 % 0 in
22:52 66.4 °F 53.4 °F 30.3 in Calm   2 mph 63 % 0 in
22:57 66 °F 53.4 °F 30.3 in Calm   2 mph 64 % 0 in
23:02 66 °F 53.4 °F 30.3 in Calm   1 mph 64 % 0 in
23:07 65.8 °F 53.8 °F 30.3 in Calm   1 mph 65 % 0 in
23:17 64.9 °F 53.8 °F 30.3 in Calm   1 mph 67 % 0 in
23:22 65.1 °F 53.4 °F 30.3 in Calm   1 mph 66 % 0 in
23:27 65.1 °F 53.4 °F 30.3 in West 1 mph 1 mph 66 % 0 in
23:32 65.1 °F 53.4 °F 30.3 in Calm   1 mph 66 % 0 in
23:37 65.1 °F 54 °F 30.3 in Calm   1 mph 67 % 0 in
23:42 64.6 °F 53.8 °F 30.3 in Calm   1 mph 68 % 0 in
23:47 64 °F 53.6 °F 30.3 in Calm   1 mph 69 % 0 in
23:52 63.7 °F 54.5 °F 30.3 in Calm   1 mph 72 % 0 in
23:57 63.5 °F 54 °F 30.3 in Calm   1 mph 71 % 0 in
Meteo18
Compliments of Weather Underground - 4 mb

Script developed by  Jim McMurry - jmcmurry@mwt.net Adapted for the template by  Wim van der Kuil - Leuven-Template.eu

You find our weather info also at:

European Weather Network

Weather Underground

Equipment we use:

Weather-station
Davis Vue

Weather-program
Meteohub

Weather-server
Raspberry PI 2 B+

Provider
1 and 1

Davis Vue

Meteohub

Raspberry PI 2 B+

1 and 1